Time;durP1;ratioP1;P1;durP2;ratioP2;P2;SDS_P1;SDS_P2;PMS_P1;PMS_P2;Temp;Humidity;BMP_temperature;BMP_pressure;BME280_temperature;BME280_humidity;BME280_pressure;Samples;Min_cycle;Max_cycle;Signal;HPM_P1;HPM_P2
2021/06/15 00:01:10;;;;;;;14.48;13.00;;;15.40;68.90;;;;;;5198440;28;20069;-71
2021/06/15 00:03:42;;;;;;;13.77;12.50;;;15.40;68.40;;;;;;5165342;28;20069;-70
2021/06/15 00:06:14;;;;;;;13.23;12.13;;;15.50;68.30;;;;;;5180221;28;20073;-71
2021/06/15 00:08:46;;;;;;;14.10;12.90;;;15.50;68.70;;;;;;5196976;28;20045;-71
2021/06/15 00:11:18;;;;;;;13.68;12.48;;;15.40;68.40;;;;;;5197494;28;20099;-71
2021/06/15 00:13:50;;;;;;;13.65;12.55;;;15.40;68.90;;;;;;5198083;28;20034;-70
2021/06/15 00:16:22;;;;;;;13.05;11.93;;;15.40;69.00;;;;;;5198357;28;20115;-71
2021/06/15 00:18:54;;;;;;;14.00;12.80;;;15.40;69.10;;;;;;5200259;28;20060;-70
2021/06/15 00:21:26;;;;;;;14.18;12.88;;;15.40;68.90;;;;;;5198443;28;20073;-70
2021/06/15 00:23:58;;;;;;;13.50;12.40;;;15.30;69.40;;;;;;5197898;28;20037;-70
2021/06/15 00:26:30;;;;;;;14.00;12.70;;;15.30;69.70;;;;;;5196377;28;20061;-71
2021/06/15 00:29:02;;;;;;;13.88;12.57;;;15.30;69.30;;;;;;5197888;28;20186;-72
2021/06/15 00:31:34;;;;;;;14.30;12.82;;;15.30;69.50;;;;;;5197302;28;20087;-72
2021/06/15 00:34:06;;;;;;;13.88;12.57;;;15.20;70.00;;;;;;5198878;28;20049;-71
2021/06/15 00:36:38;;;;;;;13.52;12.50;;;15.20;69.90;;;;;;5197214;28;20436;-72
2021/06/15 00:39:10;;;;;;;15.05;13.82;;;15.10;69.80;;;;;;5198122;28;20512;-70
2021/06/15 00:41:42;;;;;;;14.00;12.82;;;15.20;69.80;;;;;;5196526;28;20042;-71
2021/06/15 00:44:14;;;;;;;13.65;12.65;;;15.20;69.80;;;;;;5199422;28;20054;-71
2021/06/15 00:46:47;;;;;;;13.40;12.10;;;15.10;70.20;;;;;;5198457;28;20041;-71
2021/06/15 00:49:25;;;;;;;14.15;12.82;;;15.20;69.60;;;;;;5197020;28;20041;-70
2021/06/15 00:51:57;;;;;;;14.05;12.75;;;15.10;69.70;;;;;;5192879;28;20860;-71
2021/06/15 00:54:29;;;;;;;13.35;12.25;;;15.20;69.10;;;;;;5198626;28;20049;-71
2021/06/15 00:57:03;;;;;;;13.68;12.68;;;15.20;68.40;;;;;;5196477;28;20038;-71
2021/06/15 00:59:35;;;;;;;13.75;12.73;;;15.20;69.40;;;;;;5190761;28;20428;-71
2021/06/15 01:02:07;;;;;;;13.88;12.70;;;15.10;69.50;;;;;;5195411;28;20129;-71
2021/06/15 01:04:40;;;;;;;13.50;12.40;;;15.10;68.60;;;;;;5198897;28;20061;-71
2021/06/15 01:07:28;;;;;;;13.77;12.57;;;15.10;69.20;;;;;;5179045;28;20050;-71
2021/06/15 01:10:23;;;;;;;14.30;13.00;;;15.10;69.50;;;;;;5190614;28;20060;-71
2021/06/15 01:13:26;;;;;;;13.73;12.63;;;15.10;70.30;;;;;;5196599;28;20132;-71
2021/06/15 01:16:31;;;;;;;14.07;12.88;;;15.00;70.40;;;;;;5189781;28;20041;-70
2021/06/15 01:19:32;;;;;;;14.25;13.15;;;14.90;70.00;;;;;;5198438;28;20049;-71
2021/06/15 01:22:22;;;;;;;;;;;14.90;70.30;;;;;;5196056;28;20045;-71
2021/06/15 01:25:27;;;;;;;13.85;12.65;;;14.90;70.60;;;;;;5197372;28;20014;-70
2021/06/15 01:28:17;;;;;;;13.80;12.65;;;14.80;70.80;;;;;;5146273;28;20513;-71
2021/06/15 01:31:06;;;;;;;13.80;12.70;;;14.80;71.10;;;;;;5206698;28;20034;-71
2021/06/15 01:33:42;;;;;;;14.23;13.02;;;14.70;71.20;;;;;;5196958;28;20140;-70
2021/06/15 01:36:17;;;;;;;14.15;12.95;;;14.70;71.00;;;;;;5177855;28;20068;-70
2021/06/15 01:38:59;;;;;;;14.00;12.80;;;14.70;71.00;;;;;;5197065;28;20405;-70
2021/06/15 01:41:44;;;;;;;14.07;12.93;;;14.70;71.00;;;;;;5196380;28;20038;-71
2021/06/15 01:44:20;;;;;;;13.45;12.25;;;14.70;70.90;;;;;;5194779;28;20111;-71
2021/06/15 01:47:03;;;;;;;14.15;13.02;;;14.70;70.90;;;;;;5187858;28;20045;-71
2021/06/15 01:49:54;;;;;;;14.07;12.80;;;14.70;70.90;;;;;;5212537;28;20459;-71
2021/06/15 01:52:36;;;;;;;14.00;12.80;;;14.60;71.70;;;;;;5193558;28;20126;-70
2021/06/15 01:55:09;;;;;;;14.52;13.23;;;14.60;71.60;;;;;;5211365;28;20107;-70
2021/06/15 01:57:55;;;;;;;14.35;13.15;;;14.50;71.00;;;;;;5182445;28;20136;-70
2021/06/15 02:00:29;;;;;;;13.68;12.68;;;14.50;71.00;;;;;;5193122;28;20084;-71
2021/06/15 02:03:06;;;;;;;14.38;13.27;;;14.60;71.40;;;;;;5187196;28;20053;-70
2021/06/15 02:05:55;;;;;;;14.43;13.32;;;14.50;71.00;;;;;;5187384;28;20481;-71
2021/06/15 02:08:30;;;;;;;13.95;12.82;;;14.50;71.20;;;;;;5195605;28;20115;-71
2021/06/15 02:11:05;;;;;;;13.85;12.75;;;14.50;71.80;;;;;;5194734;28;20187;-69
2021/06/15 02:14:04;;;;;;;13.82;12.73;;;14.30;72.40;;;;;;5194567;28;20083;-70
2021/06/15 02:17:01;;;;;;;13.68;12.57;;;14.30;71.90;;;;;;5186333;28;20041;-70
2021/06/15 02:19:44;;;;;;;13.98;12.88;;;14.30;72.20;;;;;;5197832;28;20041;-71
2021/06/15 02:22:19;;;;;;;13.85;12.75;;;14.30;72.20;;;;;;5197854;28;20041;-70
2021/06/15 02:24:55;;;;;;;14.20;13.05;;;14.10;72.40;;;;;;5200623;28;20127;-71
2021/06/15 02:27:28;;;;;;;13.73;12.63;;;14.10;72.20;;;;;;5198825;28;20119;-71
2021/06/15 02:30:00;;;;;;;14.30;13.05;;;14.20;72.10;;;;;;5208830;28;20095;-70
2021/06/15 02:32:43;;;;;;;14.13;12.90;;;14.20;72.00;;;;;;5198267;28;20103;-71
2021/06/15 02:35:21;;;;;;;14.00;12.77;;;14.20;71.90;;;;;;5214098;28;20041;-70
2021/06/15 02:38:04;;;;;;;14.40;13.20;;;14.20;72.00;;;;;;5201962;28;20548;-69
2021/06/15 02:40:38;;;;;;;13.50;12.48;;;14.20;72.10;;;;;;5208159;28;20183;-70
2021/06/15 02:43:13;;;;;;;14.27;13.07;;;14.30;71.90;;;;;;5203862;28;20061;-70
2021/06/15 02:45:45;;;;;;;14.68;13.40;;;14.30;71.70;;;;;;5201004;28;20053;-71
2021/06/15 02:48:19;;;;;;;14.38;13.18;;;14.20;72.00;;;;;;5198131;28;20041;-72
2021/06/15 02:50:55;;;;;;;14.75;13.55;;;14.20;71.90;;;;;;5199251;28;20539;-69
2021/06/15 02:53:49;;;;;;;14.90;13.70;;;14.10;72.00;;;;;;5198465;28;20092;-70
2021/06/15 02:56:22;;;;;;;14.88;13.77;;;14.10;71.40;;;;;;5199253;28;20538;-70
2021/06/15 02:58:56;;;;;;;14.75;13.48;;;14.10;71.60;;;;;;5200634;28;20081;-69
2021/06/15 03:01:29;;;;;;;14.27;13.07;;;14.10;71.10;;;;;;5197768;28;20116;-70
2021/06/15 03:04:05;;;;;;;14.25;13.15;;;14.10;71.20;;;;;;5201177;28;20543;-70
2021/06/15 03:06:37;;;;;;;14.63;13.38;;;14.10;71.30;;;;;;5200488;28;20045;-70
2021/06/15 03:09:11;;;;;;;14.32;13.05;;;14.00;72.00;;;;;;5199945;28;20046;-70
2021/06/15 03:12:13;;;;;;;14.20;12.77;;;14.00;71.40;;;;;;5197686;28;20045;-70
2021/06/15 03:14:59;;;;;;;13.80;12.80;;;14.00;71.00;;;;;;5184976;28;20073;-70
2021/06/15 03:17:33;;;;;;;13.70;12.60;;;14.00;71.40;;;;;;5197908;28;20057;-69
2021/06/15 03:20:09;;;;;;;13.77;12.68;;;14.00;71.80;;;;;;5196532;28;20148;-69
2021/06/15 03:22:51;;;;;;;13.55;12.55;;;13.80;72.60;;;;;;5199566;28;20128;-68
2021/06/15 03:25:33;;;;;;;14.13;12.93;;;13.80;72.50;;;;;;5188192;28;20045;-68
2021/06/15 03:28:12;;;;;;;13.82;12.73;;;13.80;72.40;;;;;;5197686;28;20127;-68
2021/06/15 03:30:46;;;;;;;13.65;12.55;;;13.80;72.10;;;;;;5196914;28;20041;-69
2021/06/15 03:33:19;;;;;;;13.98;12.77;;;13.80;72.30;;;;;;5201142;28;20093;-69
2021/06/15 03:36:00;;;;;;;13.90;12.70;;;13.80;72.50;;;;;;5198625;28;20034;-69
2021/06/15 03:38:35;;;;;;;14.30;13.00;;;13.80;72.20;;;;;;5197887;28;20037;-69
2021/06/15 03:41:10;;;;;;;13.55;12.55;;;13.80;72.60;;;;;;5197764;28;20045;-68
2021/06/15 03:43:51;;;;;;;13.55;12.55;;;13.80;72.00;;;;;;5214916;28;20508;-68
2021/06/15 03:46:24;;;;;;;12.95;11.95;;;13.80;72.30;;;;;;5199012;28;20084;-69
2021/06/15 03:48:58;;;;;;;13.80;12.60;;;13.70;72.50;;;;;;5197849;28;20045;-67
2021/06/15 03:51:32;;;;;;;13.55;12.45;;;13.80;72.20;;;;;;5197703;28;20120;-68
2021/06/15 03:54:09;;;;;;;13.52;12.52;;;13.70;72.70;;;;;;5199177;28;20045;-69
2021/06/15 03:56:49;;;;;;;13.32;12.13;;;13.80;72.50;;;;;;5198625;28;20456;-68
2021/06/15 03:59:27;;;;;;;14.02;12.63;;;13.70;72.30;;;;;;5199454;28;20041;-70
2021/06/15 04:02:06;;;;;;;13.88;12.68;;;13.70;72.50;;;;;;5197726;28;20103;-68
2021/06/15 04:04:42;;;;;;;13.45;12.25;;;13.70;73.00;;;;;;5198013;28;20100;-69
2021/06/15 04:07:19;;;;;;;13.63;12.50;;;13.60;72.40;;;;;;5197866;28;20045;-68
2021/06/15 04:09:52;;;;;;;13.18;12.07;;;13.60;72.10;;;;;;5213394;28;20045;-69
2021/06/15 04:12:25;;;;;;;13.35;12.25;;;13.60;71.60;;;;;;5198885;28;20044;-68
2021/06/15 04:15:00;;;;;;;12.65;11.55;;;13.70;72.60;;;;;;5198633;28;20052;-68
2021/06/15 04:17:36;;;;;;;12.93;11.82;;;13.60;72.80;;;;;;5197992;28;20049;-70
2021/06/15 04:20:09;;;;;;;13.15;12.15;;;13.60;72.40;;;;;;5199133;28;20604;-68
2021/06/15 04:22:47;;;;;;;13.40;12.27;;;13.70;72.60;;;;;;5199544;28;20061;-69
2021/06/15 04:25:21;;;;;;;13.25;12.25;;;13.70;72.90;;;;;;5197213;28;20052;-69
2021/06/15 04:27:54;;;;;;;13.55;12.48;;;13.70;73.10;;;;;;5198167;28;20390;-70
2021/06/15 04:30:29;;;;;;;14.10;12.48;;;13.60;72.60;;;;;;5194997;28;20041;-70
2021/06/15 04:33:03;;;;;;;13.73;12.52;;;13.60;73.00;;;;;;5197485;28;20040;-69
2021/06/15 04:35:44;;;;;;;13.82;12.73;;;13.70;72.70;;;;;;5191632;28;20427;-68
2021/06/15 04:38:29;;;;;;;14.07;12.75;;;13.70;73.10;;;;;;5198865;28;20046;-68
2021/06/15 04:41:08;;;;;;;13.73;12.52;;;13.80;73.20;;;;;;5197921;28;20041;-70
2021/06/15 04:43:49;;;;;;;14.15;12.73;;;13.90;72.20;;;;;;5194978;28;20485;-68
2021/06/15 04:46:24;;;;;;;13.30;12.23;;;14.00;72.10;;;;;;5196909;28;20529;-68
2021/06/15 04:49:07;;;;;;;13.63;12.52;;;14.20;74.00;;;;;;5195500;28;20124;-69
2021/06/15 04:51:41;;;;;;;14.15;12.85;;;14.30;74.40;;;;;;5197519;28;20057;-68
2021/06/15 04:54:14;;;;;;;13.98;12.82;;;14.30;74.00;;;;;;5198102;28;20037;-67
2021/06/15 04:56:48;;;;;;;13.80;12.60;;;14.40;74.10;;;;;;5196552;28;20081;-67
2021/06/15 04:59:22;;;;;;;13.57;12.48;;;14.50;74.20;;;;;;5198011;28;20061;-67
2021/06/15 05:01:55;;;;;;;14.18;13.07;;;14.70;74.50;;;;;;5194991;28;20099;-67
2021/06/15 05:04:27;;;;;;;13.73;12.52;;;14.70;74.30;;;;;;5198221;28;20038;-68
2021/06/15 05:07:00;;;;;;;14.30;13.10;;;14.90;74.20;;;;;;5197636;28;20042;-68
2021/06/15 05:09:35;;;;;;;14.27;13.07;;;14.90;73.70;;;;;;5195774;28;20099;-69
2021/06/15 05:12:08;;;;;;;13.80;12.60;;;15.10;73.60;;;;;;5197855;28;20045;-68
2021/06/15 05:14:43;;;;;;;13.98;12.77;;;15.20;71.50;;;;;;5197985;28;20037;-71
2021/06/15 05:17:18;;;;;;;13.82;12.65;;;15.40;72.30;;;;;;5197441;28;20586;-70
2021/06/15 05:19:51;;;;;;;13.63;12.50;;;15.50;72.30;;;;;;5197903;28;20076;-70
2021/06/15 05:22:39;;;;;;;13.90;12.65;;;15.60;71.60;;;;;;5196366;28;20460;-70
2021/06/15 05:25:14;;;;;;;13.25;12.15;;;15.70;72.00;;;;;;5192213;28;20103;-70
2021/06/15 05:27:48;;;;;;;13.60;12.23;;;15.80;71.00;;;;;;5196058;28;20030;-70
2021/06/15 05:30:22;;;;;;;13.48;12.23;;;16.00;70.90;;;;;;5195016;28;20124;-69
2021/06/15 05:32:54;;;;;;;13.18;12.07;;;16.10;71.20;;;;;;5187638;28;20057;-70
2021/06/15 05:35:26;;;;;;;13.65;12.35;;;16.20;70.40;;;;;;5192064;28;20092;-72
2021/06/15 05:37:58;;;;;;;13.32;12.13;;;16.40;71.90;;;;;;5197403;28;20065;-72
2021/06/15 05:40:30;;;;;;;13.45;12.13;;;16.60;70.80;;;;;;5194997;28;20095;-72
2021/06/15 05:43:03;;;;;;;13.02;12.02;;;16.70;71.20;;;;;;5196741;28;20041;-72
2021/06/15 05:45:35;;;;;;;12.82;11.65;;;16.80;70.50;;;;;;5196756;28;20092;-72
2021/06/15 05:48:07;;;;;;;12.80;11.68;;;16.90;68.50;;;;;;5197028;28;20037;-72
2021/06/15 05:50:39;;;;;;;13.30;12.10;;;17.10;66.60;;;;;;5197075;28;20456;-73
2021/06/15 05:53:11;;;;;;;13.07;11.88;;;17.20;66.00;;;;;;5196835;28;20042;-72
2021/06/15 05:55:43;;;;;;;12.75;11.85;;;17.30;65.90;;;;;;5195746;28;20121;-72
2021/06/15 05:58:15;;;;;;;13.38;12.32;;;17.40;66.70;;;;;;5198259;28;20041;-73
2021/06/15 06:00:49;;;;;;;12.52;11.48;;;17.50;66.10;;;;;;5196070;28;20037;-73
2021/06/15 06:03:33;;;;;;;13.30;11.98;;;17.60;67.20;;;;;;5197508;28;20048;-72
2021/06/15 06:08:55;;;;;;;;;;;17.90;66.50;;;;;;5199091;28;20878;-73
2021/06/15 06:11:28;;;;;;;13.25;12.25;;;18.10;66.00;;;;;;5194347;28;19925;-72
2021/06/15 06:14:00;;;;;;;13.30;12.23;;;18.20;65.20;;;;;;5196943;28;20137;-71
2021/06/15 06:16:33;;;;;;;13.35;12.15;;;18.30;65.70;;;;;;5195691;28;20096;-72
2021/06/15 06:19:16;;;;;;;12.52;11.52;;;18.50;63.90;;;;;;5197158;28;20057;-72
2021/06/15 06:21:49;;;;;;;12.80;11.88;;;18.60;62.40;;;;;;5196119;28;20050;-72
2021/06/15 06:24:22;;;;;;;14.30;12.90;;;18.70;62.50;;;;;;5196606;28;20052;-72
2021/06/15 06:26:54;;;;;;;12.93;11.73;;;18.80;60.70;;;;;;5197118;28;20061;-71
2021/06/15 06:29:26;;;;;;;12.43;11.20;;;18.90;61.10;;;;;;5197110;28;20042;-72
2021/06/15 06:31:58;;;;;;;12.88;11.63;;;19.00;59.70;;;;;;5193826;28;20050;-72
2021/06/15 06:34:31;;;;;;;12.02;11.13;;;19.10;61.10;;;;;;5195569;28;20092;-72
2021/06/15 06:37:03;;;;;;;12.88;11.85;;;19.20;62.00;;;;;;5198009;28;20111;-72
2021/06/15 06:39:35;;;;;;;12.30;11.30;;;19.40;62.80;;;;;;5197908;28;20088;-71
2021/06/15 06:42:07;;;;;;;14.68;11.25;;;19.50;62.70;;;;;;5197058;28;20141;-71
2021/06/15 06:44:40;;;;;;;12.07;11.07;;;19.50;60.70;;;;;;5199717;28;20559;-72
2021/06/15 06:47:12;;;;;;;12.60;11.60;;;19.60;58.90;;;;;;5196880;28;20053;-71
2021/06/15 06:49:44;;;;;;;12.55;11.45;;;19.70;59.20;;;;;;5201062;28;20060;-71
2021/06/15 06:52:16;;;;;;;12.27;11.27;;;19.80;59.20;;;;;;5198712;28;20056;-72
2021/06/15 06:54:48;;;;;;;13.10;12.10;;;19.90;59.50;;;;;;5198214;28;20100;-71
2021/06/15 06:57:20;;;;;;;12.88;11.88;;;20.00;59.50;;;;;;5197787;28;20123;-71
2021/06/15 06:59:52;;;;;;;12.32;11.32;;;20.10;58.10;;;;;;5196613;28;20135;-71
2021/06/15 07:02:24;;;;;;;12.55;11.48;;;20.20;57.90;;;;;;5196293;28;20132;-72
2021/06/15 07:04:56;;;;;;;12.48;11.30;;;20.30;61.00;;;;;;5197526;28;20037;-71
2021/06/15 07:07:28;;;;;;;12.10;11.15;;;20.50;57.40;;;;;;5201105;28;20033;-71
2021/06/15 07:10:00;;;;;;;12.57;11.57;;;20.60;56.50;;;;;;5200043;28;20456;-71
2021/06/15 07:12:31;;;;;;;11.98;10.88;;;20.80;57.20;;;;;;5199583;28;20103;-71
2021/06/15 07:15:08;;;;;;;12.52;11.52;;;20.80;54.00;;;;;;5201805;28;20064;-70
2021/06/15 07:17:40;;;;;;;12.45;11.35;;;21.00;57.70;;;;;;5200839;28;20131;-70
2021/06/15 07:20:12;;;;;;;12.80;11.60;;;21.00;51.80;;;;;;5200355;28;20049;-71
2021/06/15 07:22:44;;;;;;;12.07;11.15;;;21.20;55.60;;;;;;5200196;28;20044;-71
2021/06/15 07:25:16;;;;;;;12.38;11.38;;;21.20;52.50;;;;;;5200481;28;20156;-70
2021/06/15 07:27:48;;;;;;;12.32;11.32;;;21.30;55.30;;;;;;5199382;28;20073;-71
2021/06/15 07:30:21;;;;;;;12.13;11.05;;;21.40;51.90;;;;;;5198888;28;20040;-71
2021/06/15 07:32:57;;;;;;;11.80;10.90;;;21.50;44.90;;;;;;5200419;28;20041;-71
2021/06/15 07:35:29;;;;;;;11.95;11.00;;;21.60;47.40;;;;;;5200533;28;20123;-72
2021/06/15 07:38:01;;;;;;;11.98;10.98;;;21.60;47.10;;;;;;5200936;28;20746;-72
2021/06/15 07:40:33;;;;;;;11.82;10.93;;;21.70;44.40;;;;;;5200528;28;20049;-72
2021/06/15 07:43:05;;;;;;;12.38;11.32;;;21.90;49.00;;;;;;5199775;28;20160;-72
2021/06/15 07:45:38;;;;;;;11.77;10.85;;;21.90;46.60;;;;;;5201055;28;20045;-71
2021/06/15 07:48:10;;;;;;;12.45;11.45;;;22.00;48.70;;;;;;5201386;28;20417;-71
2021/06/15 07:50:42;;;;;;;12.65;11.65;;;22.10;43.90;;;;;;5200859;28;20512;-71
2021/06/15 07:53:14;;;;;;;13.00;12.00;;;22.20;47.80;;;;;;5199383;28;20053;-71
2021/06/15 07:55:46;;;;;;;12.68;11.48;;;22.30;48.70;;;;;;5199396;28;20049;-71
2021/06/15 07:58:18;;;;;;;13.30;12.27;;;22.40;51.50;;;;;;5189348;28;20107;-71
2021/06/15 08:00:50;;;;;;;13.00;12.10;;;22.60;50.40;;;;;;5200288;28;20057;-70
2021/06/15 08:03:24;;;;;;;12.75;11.73;;;22.70;53.20;;;;;;5198882;28;20038;-71
2021/06/15 08:05:56;;;;;;;12.82;11.82;;;22.70;51.90;;;;;;5199120;28;20802;-71
2021/06/15 08:08:28;;;;;;;13.18;12.18;;;22.80;49.00;;;;;;5199952;28;20121;-73
2021/06/15 08:11:02;;;;;;;12.98;11.98;;;22.90;49.70;;;;;;5199667;28;20096;-72
2021/06/15 08:13:34;;;;;;;13.13;12.10;;;23.00;51.90;;;;;;5198856;28;20064;-72
2021/06/15 08:16:06;;;;;;;13.77;12.68;;;23.10;51.50;;;;;;5199815;28;20183;-73
2021/06/15 08:18:39;;;;;;;13.23;12.13;;;23.20;52.70;;;;;;5197599;28;20122;-73
2021/06/15 08:21:13;;;;;;;13.90;12.70;;;23.20;51.00;;;;;;5197316;28;20615;-73
2021/06/15 08:23:45;;;;;;;13.32;12.23;;;23.30;52.60;;;;;;5198648;28;20133;-73
2021/06/15 08:26:31;;;;;;;13.30;12.18;;;23.40;52.20;;;;;;5196959;28;20038;-73
2021/06/15 08:29:03;;;;;;;13.60;12.60;;;23.50;52.20;;;;;;5196848;28;20045;-73
2021/06/15 08:31:35;;;;;;;13.65;12.45;;;23.50;51.80;;;;;;5195030;28;20042;-73
2021/06/15 08:34:07;;;;;;;13.25;12.25;;;23.60;51.40;;;;;;5199754;28;20057;-72
2021/06/15 08:36:39;;;;;;;13.02;11.70;;;23.60;52.70;;;;;;5199588;28;20041;-73
2021/06/15 08:39:12;;;;;;;12.93;11.90;;;23.70;51.00;;;;;;5199163;28;20479;-73
2021/06/15 08:41:44;;;;;;;13.48;12.27;;;23.70;51.30;;;;;;5198847;28;20168;-73
2021/06/15 08:44:16;;;;;;;13.48;12.38;;;23.80;52.90;;;;;;5199510;28;20793;-72
2021/06/15 08:46:48;;;;;;;13.18;12.18;;;23.90;51.50;;;;;;5198723;28;20355;-73
2021/06/15 08:49:20;;;;;;;13.40;12.40;;;23.90;53.30;;;;;;5199157;28;20041;-72
2021/06/15 08:51:54;;;;;;;14.15;12.75;;;24.00;50.50;;;;;;5198769;28;20052;-72
2021/06/15 08:54:27;;;;;;;14.23;13.02;;;24.00;53.20;;;;;;5200334;28;20056;-73
2021/06/15 08:56:59;;;;;;;14.30;13.18;;;24.10;51.90;;;;;;5199379;28;20041;-74
2021/06/15 08:59:32;;;;;;;14.30;13.20;;;24.10;51.00;;;;;;5199329;28;20053;-73
2021/06/15 09:02:06;;;;;;;14.35;13.13;;;24.10;51.50;;;;;;5197752;28;20084;-73
2021/06/15 09:04:38;;;;;;;13.82;12.75;;;24.20;53.30;;;;;;5199921;28;20143;-73
2021/06/15 09:07:10;;;;;;;13.63;12.52;;;24.20;51.10;;;;;;5212891;28;20103;-73
2021/06/15 09:09:48;;;;;;;13.57;12.50;;;24.30;51.50;;;;;;5199214;28;20065;-73
2021/06/15 09:12:21;;;;;;;14.25;13.15;;;24.40;52.00;;;;;;5196684;28;20111;-73
2021/06/15 09:14:55;;;;;;;13.38;12.38;;;24.50;51.40;;;;;;5199329;28;20052;-73
2021/06/15 09:17:28;;;;;;;13.95;12.77;;;24.50;50.90;;;;;;5197955;28;20045;-73
2021/06/15 09:20:11;;;;;;;14.05;12.80;;;24.60;49.10;;;;;;5198918;28;20136;-72
2021/06/15 09:22:43;;;;;;;14.00;13.00;;;24.60;51.60;;;;;;5198830;28;20037;-73
2021/06/15 09:25:15;;;;;;;14.40;13.27;;;24.60;51.10;;;;;;5197488;28;20107;-73
2021/06/15 09:27:47;;;;;;;14.63;13.32;;;24.70;50.50;;;;;;5197855;28;20045;-72
2021/06/15 09:30:22;;;;;;;14.35;13.27;;;24.70;47.70;;;;;;5198341;28;20049;-72
2021/06/15 09:32:54;;;;;;;14.60;13.48;;;24.70;51.50;;;;;;5196190;28;20165;-72
2021/06/15 09:35:31;;;;;;;14.38;13.20;;;24.80;51.20;;;;;;5197656;28;20077;-73
2021/06/15 09:38:04;;;;;;;14.80;13.70;;;24.80;50.30;;;;;;5199020;28;20099;-73
2021/06/15 09:40:39;;;;;;;13.77;12.77;;;24.90;51.70;;;;;;5197306;28;20045;-72
2021/06/15 09:43:12;;;;;;;14.35;13.25;;;24.90;49.20;;;;;;5193075;28;20088;-73
2021/06/15 09:45:46;;;;;;;14.15;13.00;;;24.90;49.40;;;;;;5199038;28;20046;-73
2021/06/15 09:48:35;;;;;;;14.38;13.27;;;25.00;49.60;;;;;;5197664;28;20064;-73
2021/06/15 09:51:11;;;;;;;13.68;12.68;;;25.00;48.70;;;;;;5198732;28;20053;-72
2021/06/15 09:53:51;;;;;;;13.75;12.68;;;25.20;50.30;;;;;;5198291;28;20069;-74
2021/06/15 09:56:23;;;;;;;;;;;25.20;50.30;;;;;;5198169;28;20465;-72
2021/06/15 09:58:57;;;;;;;14.32;13.13;;;25.20;48.00;;;;;;5197636;28;19925;-72
2021/06/15 10:01:37;;;;;;;14.20;13.10;;;25.30;47.60;;;;;;5197802;28;20455;-73
2021/06/15 10:04:13;;;;;;;13.82;12.80;;;25.30;47.20;;;;;;5198800;28;20516;-72
2021/06/15 10:06:53;;;;;;;13.73;12.52;;;25.30;48.70;;;;;;5195620;28;20038;-73
2021/06/15 10:09:24;;;;;;;;;;;25.40;50.00;;;;;;5190880;28;20501;-73
2021/06/15 10:11:59;;;;;;;14.55;13.40;;;25.50;46.80;;;;;;5195710;28;20016;-74
2021/06/15 10:14:34;;;;;;;14.45;13.35;;;25.60;47.80;;;;;;5197861;28;20076;-72
2021/06/15 10:17:06;;;;;;;14.60;13.45;;;25.60;48.30;;;;;;5196598;28;20042;-74
2021/06/15 10:19:40;;;;;;;14.57;13.48;;;25.60;47.30;;;;;;5195887;28;20050;-73
2021/06/15 10:22:12;;;;;;;14.48;13.30;;;25.70;49.40;;;;;;5196889;28;20052;-74
2021/06/15 10:24:47;;;;;;;13.93;12.82;;;25.70;49.60;;;;;;5197837;28;20484;-74
2021/06/15 10:27:19;;;;;;;14.00;12.80;;;25.70;47.20;;;;;;5196211;28;20041;-73
2021/06/15 10:29:52;;;;;;;14.63;13.43;;;25.70;48.10;;;;;;5197047;28;20124;-74
2021/06/15 10:32:26;;;;;;;14.43;13.23;;;25.80;47.50;;;;;;5195662;28;20103;-73
2021/06/15 10:35:07;;;;;;;14.60;13.45;;;25.80;46.00;;;;;;5197739;28;20511;-74
2021/06/15 10:37:41;;;;;;;14.77;13.57;;;25.80;46.80;;;;;;5196989;28;20096;-74
2021/06/15 10:40:13;;;;;;;14.38;13.18;;;25.90;46.70;;;;;;5196128;28;20107;-74
2021/06/15 10:43:11;;;;;;;14.52;13.43;;;26.00;46.50;;;;;;5201072;28;20099;-74
2021/06/15 10:45:53;;;;;;;14.32;13.20;;;26.10;48.70;;;;;;5200976;28;20041;-74
2021/06/15 10:48:28;;;;;;;14.73;13.55;;;26.10;45.90;;;;;;5201569;28;20785;-73
2021/06/15 10:51:15;;;;;;;15.27;14.07;;;26.20;46.10;;;;;;5201009;28;20120;-74
2021/06/15 10:53:47;;;;;;;15.23;14.02;;;26.20;46.50;;;;;;5198728;28;20037;-74
2021/06/15 10:56:22;;;;;;;14.15;13.05;;;26.30;46.40;;;;;;5199130;28;20053;-74
2021/06/15 10:58:59;;;;;;;14.90;13.70;;;26.30;46.10;;;;;;5204731;28;20084;-74
2021/06/15 11:01:36;;;;;;;15.00;13.90;;;26.30;47.00;;;;;;5201882;28;20087;-74
2021/06/15 11:04:13;;;;;;;15.05;13.75;;;26.30;43.30;;;;;;5200631;28;20111;-74
2021/06/15 11:06:49;;;;;;;15.05;13.88;;;26.40;48.10;;;;;;5199715;28;20068;-73
2021/06/15 11:09:24;;;;;;;15.73;14.20;;;26.40;45.40;;;;;;5201990;28;20053;-74
2021/06/15 11:11:59;;;;;;;15.35;14.15;;;26.50;46.60;;;;;;5201104;28;20410;-72
2021/06/15 11:14:32;;;;;;;15.15;14.05;;;26.60;46.30;;;;;;5202292;28;20564;-73
2021/06/15 11:17:07;;;;;;;14.95;13.70;;;26.60;44.80;;;;;;5198839;28;20046;-73
2021/06/15 11:19:40;;;;;;;16.00;14.63;;;26.60;46.00;;;;;;5201147;28;20037;-73
2021/06/15 11:22:19;;;;;;;15.68;14.48;;;26.60;47.80;;;;;;5194998;28;20466;-73
2021/06/15 11:24:55;;;;;;;15.45;14.25;;;26.70;45.60;;;;;;5198747;28;20168;-74
2021/06/15 11:27:27;;;;;;;14.98;13.77;;;26.70;45.20;;;;;;5199387;28;20052;-73
2021/06/15 11:30:11;;;;;;;15.35;14.23;;;26.70;45.50;;;;;;5198180;28;20045;-71
2021/06/15 11:33:10;;;;;;;15.10;14.00;;;26.70;43.30;;;;;;5206031;28;20049;-71
2021/06/15 11:35:42;;;;;;;15.45;14.35;;;26.80;43.80;;;;;;5206355;28;20469;-72
2021/06/15 11:38:16;;;;;;;15.45;14.15;;;26.90;42.70;;;;;;5208629;28;20054;-71
2021/06/15 11:40:48;;;;;;;15.35;13.98;;;26.90;41.90;;;;;;5183097;28;20037;-71
2021/06/15 11:43:21;;;;;;;15.05;13.88;;;27.00;43.30;;;;;;5201170;28;20068;-71
2021/06/15 11:45:55;;;;;;;15.20;14.10;;;27.10;42.00;;;;;;5201376;28;20091;-73
2021/06/15 11:48:34;;;;;;;15.23;14.02;;;27.10;41.40;;;;;;5198613;28;20045;-72
2021/06/15 11:51:08;;;;;;;;;;;27.10;40.50;;;;;;5190978;28;20532;-73
2021/06/15 11:53:41;;;;;;;15.82;14.57;;;27.10;40.60;;;;;;5200072;28;20475;-73
2021/06/15 11:56:14;;;;;;;15.27;13.98;;;27.20;40.40;;;;;;5199609;28;20071;-71
2021/06/15 11:58:54;;;;;;;15.10;13.80;;;27.30;42.10;;;;;;5200512;28;20041;-70
2021/06/15 12:01:36;;;;;;;15.27;14.18;;;27.30;40.30;;;;;;5193939;28;20041;-72
2021/06/15 12:04:08;;;;;;;14.85;13.85;;;27.50;40.60;;;;;;5199439;28;20034;-71
2021/06/15 12:06:40;;;;;;;14.77;13.68;;;27.50;39.60;;;;;;5199518;28;20331;-72
2021/06/15 12:09:12;;;;;;;14.77;13.77;;;27.40;40.20;;;;;;5197149;28;20119;-72
2021/06/15 12:11:45;;;;;;;15.43;14.30;;;27.50;38.60;;;;;;5191283;28;20430;-73
2021/06/15 12:14:17;;;;;;;16.00;14.77;;;27.50;41.00;;;;;;5177051;28;20052;-72
2021/06/15 12:16:52;;;;;;;15.70;14.55;;;27.60;39.00;;;;;;5193932;28;20428;-72
2021/06/15 12:19:35;;;;;;;16.33;14.80;;;27.70;39.40;;;;;;5194172;28;20049;-72
2021/06/15 12:22:14;;;;;;;15.98;14.88;;;27.70;39.70;;;;;;5195895;28;20151;-71
2021/06/15 12:24:46;;;;;;;15.90;14.73;;;27.70;39.00;;;;;;5197927;28;20923;-73
2021/06/15 12:27:22;;;;;;;16.67;15.45;;;27.80;40.30;;;;;;5194710;28;20049;-73
2021/06/15 12:30:04;;;;;;;17.27;15.70;;;27.80;37.10;;;;;;5194626;28;20045;-72
2021/06/15 12:32:47;;;;;;;17.13;15.75;;;27.80;38.80;;;;;;5196416;28;20484;-73
2021/06/15 12:35:20;;;;;;;16.65;15.45;;;27.90;39.40;;;;;;5196287;28;20050;-73
2021/06/15 12:37:52;;;;;;;16.90;15.70;;;28.00;39.50;;;;;;5195412;28;20119;-73
2021/06/15 12:40:24;;;;;;;17.33;15.93;;;28.00;39.40;;;;;;5196947;28;20046;-72
2021/06/15 12:42:56;;;;;;;17.48;16.20;;;28.10;39.10;;;;;;5196120;28;20041;-72
2021/06/15 12:45:35;;;;;;;17.25;16.02;;;28.20;40.50;;;;;;5196233;28;20046;-73
2021/06/15 12:48:25;;;;;;;17.35;16.05;;;28.30;38.70;;;;;;5194918;28;20051;-73
2021/06/15 12:51:15;;;;;;;;;;;28.30;36.60;;;;;;5196779;28;20136;-72
2021/06/15 12:53:47;;;;;;;17.10;15.80;;;28.20;37.70;;;;;;5197491;28;20024;-73
2021/06/15 12:56:28;;;;;;;17.02;15.77;;;28.30;38.20;;;;;;5195247;28;20095;-73
2021/06/15 12:59:12;;;;;;;17.05;15.85;;;28.30;38.20;;;;;;5196898;28;20045;-74
2021/06/15 13:01:44;;;;;;;17.45;16.15;;;28.40;36.50;;;;;;5194340;28;20199;-73
2021/06/15 13:04:32;;;;;;;17.15;15.75;;;28.50;37.70;;;;;;5197446;28;20116;-72
2021/06/15 13:07:12;;;;;;;17.42;16.02;;;28.40;37.30;;;;;;5197211;28;20061;-73
2021/06/15 13:09:44;;;;;;;;;;;28.50;37.60;;;;;;5198210;28;20037;-73
2021/06/15 13:12:21;;;;;;;17.98;16.58;;;28.50;38.40;;;;;;5195473;28;19968;-73
2021/06/15 13:15:16;;;;;;;17.42;16.13;;;28.60;37.50;;;;;;5196454;28;20501;-72